sensor_id;sensor_type;location;lat;lon;timestamp;P1;durP1;ratioP1;P2;durP2;ratioP2
36653;SDS011;22650;49.350;20.898;2024-01-30T00:00:40;129.55;;;48.40;;
36653;SDS011;22650;49.350;20.898;2024-01-30T00:03:13;110.82;;;47.53;;
36653;SDS011;22650;49.350;20.898;2024-01-30T00:05:47;77.38;;;35.72;;
36653;SDS011;22650;49.350;20.898;2024-01-30T00:08:21;90.00;;;38.92;;
36653;SDS011;22650;49.350;20.898;2024-01-30T00:10:54;86.40;;;37.13;;
36653;SDS011;22650;49.350;20.898;2024-01-30T00:13:28;82.95;;;35.00;;
36653;SDS011;22650;49.350;20.898;2024-01-30T00:16:03;81.20;;;34.30;;
36653;SDS011;22650;49.350;20.898;2024-01-30T00:21:11;76.85;;;32.70;;
36653;SDS011;22650;49.350;20.898;2024-01-30T00:23:45;72.40;;;32.05;;
36653;SDS011;22650;49.350;20.898;2024-01-30T00:26:18;58.17;;;27.98;;
36653;SDS011;22650;49.350;20.898;2024-01-30T00:28:52;72.18;;;34.78;;
36653;SDS011;22650;49.350;20.898;2024-01-30T00:31:27;72.18;;;32.40;;
36653;SDS011;22650;49.350;20.898;2024-01-30T00:34:01;61.42;;;28.70;;
36653;SDS011;22650;49.350;20.898;2024-01-30T00:36:35;76.45;;;34.10;;
36653;SDS011;22650;49.350;20.898;2024-01-30T00:39:08;62.97;;;28.92;;
36653;SDS011;22650;49.350;20.898;2024-01-30T00:41:43;55.55;;;26.48;;
36653;SDS011;22650;49.350;20.898;2024-01-30T00:44:17;63.63;;;28.35;;
36653;SDS011;22650;49.350;20.898;2024-01-30T00:46:52;69.13;;;31.25;;
36653;SDS011;22650;49.350;20.898;2024-01-30T00:49:25;70.85;;;31.60;;
36653;SDS011;22650;49.350;20.898;2024-01-30T00:51:59;68.07;;;31.63;;
36653;SDS011;22650;49.350;20.898;2024-01-30T00:54:32;64.22;;;32.33;;
36653;SDS011;22650;49.350;20.898;2024-01-30T00:57:06;66.28;;;32.30;;
36653;SDS011;22650;49.350;20.898;2024-01-30T00:59:40;83.68;;;36.30;;
36653;SDS011;22650;49.350;20.898;2024-01-30T01:02:15;68.72;;;32.63;;
36653;SDS011;22650;49.350;20.898;2024-01-30T01:04:50;82.38;;;38.75;;
36653;SDS011;22650;49.350;20.898;2024-01-30T01:07:23;77.15;;;36.42;;
36653;SDS011;22650;49.350;20.898;2024-01-30T01:09:57;85.00;;;39.03;;
36653;SDS011;22650;49.350;20.898;2024-01-30T01:12:30;76.25;;;35.97;;
36653;SDS011;22650;49.350;20.898;2024-01-30T01:15:05;84.53;;;38.58;;
36653;SDS011;22650;49.350;20.898;2024-01-30T01:17:42;89.15;;;39.40;;
36653;SDS011;22650;49.350;20.898;2024-01-30T01:20:16;81.35;;;34.42;;
36653;SDS011;22650;49.350;20.898;2024-01-30T01:22:50;88.57;;;40.15;;
36653;SDS011;22650;49.350;20.898;2024-01-30T01:25:24;95.57;;;42.13;;
36653;SDS011;22650;49.350;20.898;2024-01-30T01:27:58;81.70;;;36.80;;
36653;SDS011;22650;49.350;20.898;2024-01-30T01:30:33;84.18;;;39.55;;
36653;SDS011;22650;49.350;20.898;2024-01-30T01:33:09;71.80;;;33.65;;
36653;SDS011;22650;49.350;20.898;2024-01-30T01:35:46;74.03;;;35.20;;
36653;SDS011;22650;49.350;20.898;2024-01-30T01:38:19;76.68;;;35.17;;
36653;SDS011;22650;49.350;20.898;2024-01-30T01:40:53;79.15;;;38.03;;
36653;SDS011;22650;49.350;20.898;2024-01-30T01:43:26;84.00;;;38.28;;
36653;SDS011;22650;49.350;20.898;2024-01-30T01:46:01;68.35;;;31.92;;
36653;SDS011;22650;49.350;20.898;2024-01-30T01:48:37;76.82;;;37.20;;
36653;SDS011;22650;49.350;20.898;2024-01-30T01:51:12;80.88;;;40.35;;
36653;SDS011;22650;49.350;20.898;2024-01-30T01:53:46;78.97;;;39.92;;
36653;SDS011;22650;49.350;20.898;2024-01-30T01:56:19;72.72;;;36.47;;
36653;SDS011;22650;49.350;20.898;2024-01-30T01:58:54;74.93;;;36.95;;
36653;SDS011;22650;49.350;20.898;2024-01-30T02:01:28;71.95;;;35.47;;
36653;SDS011;22650;49.350;20.898;2024-01-30T02:04:04;79.57;;;37.28;;
36653;SDS011;22650;49.350;20.898;2024-01-30T02:09:11;76.57;;;35.33;;
36653;SDS011;22650;49.350;20.898;2024-01-30T02:11:45;64.55;;;35.65;;
36653;SDS011;22650;49.350;20.898;2024-01-30T02:14:18;57.63;;;29.40;;
36653;SDS011;22650;49.350;20.898;2024-01-30T02:16:52;67.38;;;32.70;;
36653;SDS011;22650;49.350;20.898;2024-01-30T02:19:27;68.00;;;34.30;;
36653;SDS011;22650;49.350;20.898;2024-01-30T02:22:02;63.65;;;31.83;;
36653;SDS011;22650;49.350;20.898;2024-01-30T02:24:37;61.55;;;30.55;;
36653;SDS011;22650;49.350;20.898;2024-01-30T02:27:10;50.75;;;27.85;;
36653;SDS011;22650;49.350;20.898;2024-01-30T02:29:44;70.30;;;32.97;;
36653;SDS011;22650;49.350;20.898;2024-01-30T02:32:18;65.07;;;32.42;;
36653;SDS011;22650;49.350;20.898;2024-01-30T02:34:51;59.78;;;30.15;;
36653;SDS011;22650;49.350;20.898;2024-01-30T02:37:26;67.53;;;33.75;;
36653;SDS011;22650;49.350;20.898;2024-01-30T02:40:00;65.13;;;31.65;;
36653;SDS011;22650;49.350;20.898;2024-01-30T02:42:34;65.50;;;29.85;;
36653;SDS011;22650;49.350;20.898;2024-01-30T02:45:08;58.45;;;28.60;;
36653;SDS011;22650;49.350;20.898;2024-01-30T02:47:42;69.43;;;30.98;;
36653;SDS011;22650;49.350;20.898;2024-01-30T02:50:16;57.75;;;29.38;;
36653;SDS011;22650;49.350;20.898;2024-01-30T02:52:51;61.78;;;29.02;;
36653;SDS011;22650;49.350;20.898;2024-01-30T02:55:25;74.72;;;35.22;;
36653;SDS011;22650;49.350;20.898;2024-01-30T02:57:59;60.42;;;29.35;;
36653;SDS011;22650;49.350;20.898;2024-01-30T03:00:32;48.20;;;26.63;;
36653;SDS011;22650;49.350;20.898;2024-01-30T03:03:06;56.60;;;28.88;;
36653;SDS011;22650;49.350;20.898;2024-01-30T03:05:40;68.18;;;30.90;;
36653;SDS011;22650;49.350;20.898;2024-01-30T03:08:15;59.58;;;30.95;;
36653;SDS011;22650;49.350;20.898;2024-01-30T03:10:49;70.90;;;31.98;;
36653;SDS011;22650;49.350;20.898;2024-01-30T03:13:22;65.97;;;32.17;;
36653;SDS011;22650;49.350;20.898;2024-01-30T03:15:56;65.70;;;31.23;;
36653;SDS011;22650;49.350;20.898;2024-01-30T03:18:30;61.65;;;31.83;;
36653;SDS011;22650;49.350;20.898;2024-01-30T03:21:04;64.78;;;31.15;;
36653;SDS011;22650;49.350;20.898;2024-01-30T03:23:39;65.32;;;29.05;;
36653;SDS011;22650;49.350;20.898;2024-01-30T03:26:12;63.92;;;30.35;;
36653;SDS011;22650;49.350;20.898;2024-01-30T03:28:47;61.78;;;31.55;;
36653;SDS011;22650;49.350;20.898;2024-01-30T03:31:20;58.53;;;28.25;;
36653;SDS011;22650;49.350;20.898;2024-01-30T03:33:54;63.17;;;29.33;;
36653;SDS011;22650;49.350;20.898;2024-01-30T03:36:28;63.55;;;30.73;;
36653;SDS011;22650;49.350;20.898;2024-01-30T03:39:06;65.38;;;31.30;;
36653;SDS011;22650;49.350;20.898;2024-01-30T03:41:41;55.35;;;28.05;;
36653;SDS011;22650;49.350;20.898;2024-01-30T03:44:16;57.67;;;28.77;;
36653;SDS011;22650;49.350;20.898;2024-01-30T03:46:50;53.97;;;28.65;;
36653;SDS011;22650;49.350;20.898;2024-01-30T03:49:23;56.67;;;27.77;;
36653;SDS011;22650;49.350;20.898;2024-01-30T03:51:57;54.88;;;26.10;;
36653;SDS011;22650;49.350;20.898;2024-01-30T03:54:32;55.67;;;29.83;;
36653;SDS011;22650;49.350;20.898;2024-01-30T03:57:06;60.22;;;30.55;;
36653;SDS011;22650;49.350;20.898;2024-01-30T03:59:41;63.03;;;30.63;;
36653;SDS011;22650;49.350;20.898;2024-01-30T04:02:15;59.50;;;30.52;;
36653;SDS011;22650;49.350;20.898;2024-01-30T04:04:49;57.60;;;28.63;;
36653;SDS011;22650;49.350;20.898;2024-01-30T04:07:23;62.97;;;33.08;;
36653;SDS011;22650;49.350;20.898;2024-01-30T04:09:58;56.40;;;25.77;;
36653;SDS011;22650;49.350;20.898;2024-01-30T04:12:32;59.15;;;28.38;;
36653;SDS011;22650;49.350;20.898;2024-01-30T04:15:06;53.80;;;28.10;;
36653;SDS011;22650;49.350;20.898;2024-01-30T04:17:40;56.90;;;29.33;;
36653;SDS011;22650;49.350;20.898;2024-01-30T04:20:14;54.08;;;27.88;;
36653;SDS011;22650;49.350;20.898;2024-01-30T04:22:48;54.70;;;26.77;;
36653;SDS011;22650;49.350;20.898;2024-01-30T04:25:23;59.22;;;30.35;;
36653;SDS011;22650;49.350;20.898;2024-01-30T04:27:57;61.95;;;30.83;;
36653;SDS011;22650;49.350;20.898;2024-01-30T04:30:30;55.58;;;28.55;;
36653;SDS011;22650;49.350;20.898;2024-01-30T04:33:04;56.83;;;28.45;;
36653;SDS011;22650;49.350;20.898;2024-01-30T04:35:38;45.33;;;24.40;;
36653;SDS011;22650;49.350;20.898;2024-01-30T04:38:12;59.50;;;30.60;;
36653;SDS011;22650;49.350;20.898;2024-01-30T04:40:47;56.35;;;27.80;;
36653;SDS011;22650;49.350;20.898;2024-01-30T04:43:21;60.17;;;32.83;;
36653;SDS011;22650;49.350;20.898;2024-01-30T04:45:54;54.75;;;27.33;;
36653;SDS011;22650;49.350;20.898;2024-01-30T04:48:28;58.40;;;28.85;;
36653;SDS011;22650;49.350;20.898;2024-01-30T04:51:02;54.85;;;27.08;;
36653;SDS011;22650;49.350;20.898;2024-01-30T04:53:36;43.05;;;25.15;;
36653;SDS011;22650;49.350;20.898;2024-01-30T04:56:12;46.80;;;24.73;;
36653;SDS011;22650;49.350;20.898;2024-01-30T04:58:46;58.15;;;28.50;;
36653;SDS011;22650;49.350;20.898;2024-01-30T05:01:20;54.25;;;26.20;;
36653;SDS011;22650;49.350;20.898;2024-01-30T05:03:53;54.33;;;26.63;;
36653;SDS011;22650;49.350;20.898;2024-01-30T05:06:27;50.67;;;25.42;;
36653;SDS011;22650;49.350;20.898;2024-01-30T05:09:01;42.83;;;20.90;;
36653;SDS011;22650;49.350;20.898;2024-01-30T05:11:38;36.58;;;20.50;;
36653;SDS011;22650;49.350;20.898;2024-01-30T05:14:12;46.83;;;22.27;;
36653;SDS011;22650;49.350;20.898;2024-01-30T05:16:46;43.78;;;21.77;;
36653;SDS011;22650;49.350;20.898;2024-01-30T05:19:20;41.65;;;22.60;;
36653;SDS011;22650;49.350;20.898;2024-01-30T05:21:55;44.42;;;22.05;;
36653;SDS011;22650;49.350;20.898;2024-01-30T05:24:29;39.47;;;20.67;;
36653;SDS011;22650;49.350;20.898;2024-01-30T05:27:04;49.00;;;25.08;;
36653;SDS011;22650;49.350;20.898;2024-01-30T05:29:37;39.53;;;21.65;;
36653;SDS011;22650;49.350;20.898;2024-01-30T05:32:11;50.17;;;23.85;;
36653;SDS011;22650;49.350;20.898;2024-01-30T05:34:44;47.55;;;25.58;;
36653;SDS011;22650;49.350;20.898;2024-01-30T05:37:18;42.17;;;19.80;;
36653;SDS011;22650;49.350;20.898;2024-01-30T05:39:52;36.58;;;19.33;;
36653;SDS011;22650;49.350;20.898;2024-01-30T05:42:27;35.72;;;19.90;;
36653;SDS011;22650;49.350;20.898;2024-01-30T05:45:01;37.17;;;18.42;;
36653;SDS011;22650;49.350;20.898;2024-01-30T05:47:34;31.67;;;17.73;;
36653;SDS011;22650;49.350;20.898;2024-01-30T05:50:08;40.92;;;19.83;;
36653;SDS011;22650;49.350;20.898;2024-01-30T05:52:42;31.02;;;15.52;;
36653;SDS011;22650;49.350;20.898;2024-01-30T05:55:16;29.20;;;14.75;;
36653;SDS011;22650;49.350;20.898;2024-01-30T05:57:51;29.40;;;13.73;;
36653;SDS011;22650;49.350;20.898;2024-01-30T06:00:25;30.60;;;14.77;;
36653;SDS011;22650;49.350;20.898;2024-01-30T06:02:58;26.52;;;14.02;;
36653;SDS011;22650;49.350;20.898;2024-01-30T06:05:32;33.85;;;16.10;;
36653;SDS011;22650;49.350;20.898;2024-01-30T06:08:06;35.95;;;16.95;;
36653;SDS011;22650;49.350;20.898;2024-01-30T06:10:39;27.00;;;15.50;;
36653;SDS011;22650;49.350;20.898;2024-01-30T06:13:15;26.40;;;13.60;;
36653;SDS011;22650;49.350;20.898;2024-01-30T06:15:48;40.60;;;18.45;;
36653;SDS011;22650;49.350;20.898;2024-01-30T06:18:22;27.50;;;14.20;;
36653;SDS011;22650;49.350;20.898;2024-01-30T06:20:56;27.10;;;14.32;;
36653;SDS011;22650;49.350;20.898;2024-01-30T06:23:30;27.50;;;13.73;;
36653;SDS011;22650;49.350;20.898;2024-01-30T06:26:03;28.95;;;14.05;;
36653;SDS011;22650;49.350;20.898;2024-01-30T06:28:39;32.10;;;15.65;;
36653;SDS011;22650;49.350;20.898;2024-01-30T06:31:13;31.85;;;16.02;;
36653;SDS011;22650;49.350;20.898;2024-01-30T06:33:46;26.83;;;15.60;;
36653;SDS011;22650;49.350;20.898;2024-01-30T06:36:20;26.85;;;13.38;;
36653;SDS011;22650;49.350;20.898;2024-01-30T06:38:54;29.77;;;14.05;;
36653;SDS011;22650;49.350;20.898;2024-01-30T06:41:27;31.40;;;16.25;;
36653;SDS011;22650;49.350;20.898;2024-01-30T06:44:03;35.10;;;16.83;;
36653;SDS011;22650;49.350;20.898;2024-01-30T06:46:38;31.55;;;17.17;;
36653;SDS011;22650;49.350;20.898;2024-01-30T06:49:12;34.20;;;16.80;;
36653;SDS011;22650;49.350;20.898;2024-01-30T06:51:45;34.35;;;18.45;;
36653;SDS011;22650;49.350;20.898;2024-01-30T06:54:19;37.33;;;18.38;;
36653;SDS011;22650;49.350;20.898;2024-01-30T06:56:53;39.78;;;20.27;;
36653;SDS011;22650;49.350;20.898;2024-01-30T06:59:28;42.15;;;20.70;;
36653;SDS011;22650;49.350;20.898;2024-01-30T07:02:01;33.88;;;18.02;;
36653;SDS011;22650;49.350;20.898;2024-01-30T07:04:35;36.85;;;18.45;;
36653;SDS011;22650;49.350;20.898;2024-01-30T07:07:16;43.60;;;20.70;;
36653;SDS011;22650;49.350;20.898;2024-01-30T07:09:49;48.38;;;21.88;;
36653;SDS011;22650;49.350;20.898;2024-01-30T07:12:28;49.92;;;23.85;;
36653;SDS011;22650;49.350;20.898;2024-01-30T07:15:06;53.63;;;25.38;;
36653;SDS011;22650;49.350;20.898;2024-01-30T07:17:40;46.63;;;21.33;;
36653;SDS011;22650;49.350;20.898;2024-01-30T07:20:14;38.38;;;19.00;;
36653;SDS011;22650;49.350;20.898;2024-01-30T07:22:49;33.33;;;17.40;;
36653;SDS011;22650;49.350;20.898;2024-01-30T07:25:23;37.53;;;18.15;;
36653;SDS011;22650;49.350;20.898;2024-01-30T07:27:58;33.88;;;16.92;;
36653;SDS011;22650;49.350;20.898;2024-01-30T07:30:33;39.00;;;18.02;;
36653;SDS011;22650;49.350;20.898;2024-01-30T07:33:07;44.33;;;18.08;;
36653;SDS011;22650;49.350;20.898;2024-01-30T07:35:41;41.13;;;20.25;;
36653;SDS011;22650;49.350;20.898;2024-01-30T07:38:15;34.22;;;17.50;;
36653;SDS011;22650;49.350;20.898;2024-01-30T07:40:49;32.28;;;16.30;;
36653;SDS011;22650;49.350;20.898;2024-01-30T07:43:23;23.92;;;12.90;;
36653;SDS011;22650;49.350;20.898;2024-01-30T07:45:58;23.27;;;11.77;;
36653;SDS011;22650;49.350;20.898;2024-01-30T07:48:32;18.90;;;10.13;;
36653;SDS011;22650;49.350;20.898;2024-01-30T07:51:06;18.83;;;9.02;;
36653;SDS011;22650;49.350;20.898;2024-01-30T07:53:40;20.25;;;10.75;;
36653;SDS011;22650;49.350;20.898;2024-01-30T07:56:14;14.57;;;8.23;;
36653;SDS011;22650;49.350;20.898;2024-01-30T07:58:48;18.35;;;9.23;;
36653;SDS011;22650;49.350;20.898;2024-01-30T08:01:23;24.27;;;11.65;;
36653;SDS011;22650;49.350;20.898;2024-01-30T08:03:57;21.90;;;9.82;;
36653;SDS011;22650;49.350;20.898;2024-01-30T08:06:30;18.35;;;10.88;;
36653;SDS011;22650;49.350;20.898;2024-01-30T08:09:04;19.40;;;10.50;;
36653;SDS011;22650;49.350;20.898;2024-01-30T08:11:38;18.63;;;9.90;;
36653;SDS011;22650;49.350;20.898;2024-01-30T08:14:12;21.48;;;11.70;;
36653;SDS011;22650;49.350;20.898;2024-01-30T08:16:47;18.90;;;10.65;;
36653;SDS011;22650;49.350;20.898;2024-01-30T08:19:21;22.38;;;12.30;;
36653;SDS011;22650;49.350;20.898;2024-01-30T08:21:55;26.38;;;12.02;;
36653;SDS011;22650;49.350;20.898;2024-01-30T08:24:28;24.15;;;12.40;;
36653;SDS011;22650;49.350;20.898;2024-01-30T08:27:02;28.10;;;14.55;;
36653;SDS011;22650;49.350;20.898;2024-01-30T08:29:36;31.73;;;16.10;;
36653;SDS011;22650;49.350;20.898;2024-01-30T08:32:11;27.23;;;13.77;;
36653;SDS011;22650;49.350;20.898;2024-01-30T08:34:45;31.80;;;17.13;;
36653;SDS011;22650;49.350;20.898;2024-01-30T08:37:19;32.63;;;17.55;;
36653;SDS011;22650;49.350;20.898;2024-01-30T08:39:53;28.98;;;16.38;;
36653;SDS011;22650;49.350;20.898;2024-01-30T08:42:26;31.77;;;16.83;;
36653;SDS011;22650;49.350;20.898;2024-01-30T08:45:00;28.25;;;14.85;;
36653;SDS011;22650;49.350;20.898;2024-01-30T08:47:36;30.13;;;16.83;;
36653;SDS011;22650;49.350;20.898;2024-01-30T08:50:10;33.90;;;19.95;;
36653;SDS011;22650;49.350;20.898;2024-01-30T08:52:43;33.20;;;17.65;;
36653;SDS011;22650;49.350;20.898;2024-01-30T08:57:52;31.73;;;17.23;;
36653;SDS011;22650;49.350;20.898;2024-01-30T09:00:26;35.35;;;17.88;;
36653;SDS011;22650;49.350;20.898;2024-01-30T09:03:01;34.28;;;18.40;;
36653;SDS011;22650;49.350;20.898;2024-01-30T09:05:35;28.63;;;16.77;;
36653;SDS011;22650;49.350;20.898;2024-01-30T09:08:09;34.25;;;19.40;;
36653;SDS011;22650;49.350;20.898;2024-01-30T09:10:43;31.35;;;17.48;;
36653;SDS011;22650;49.350;20.898;2024-01-30T09:13:17;27.23;;;15.63;;
36653;SDS011;22650;49.350;20.898;2024-01-30T09:15:51;26.55;;;15.77;;
36653;SDS011;22650;49.350;20.898;2024-01-30T09:18:26;26.33;;;16.15;;
36653;SDS011;22650;49.350;20.898;2024-01-30T09:21:00;28.52;;;15.48;;
36653;SDS011;22650;49.350;20.898;2024-01-30T09:23:34;26.13;;;16.20;;
36653;SDS011;22650;49.350;20.898;2024-01-30T09:26:07;26.63;;;15.45;;
36653;SDS011;22650;49.350;20.898;2024-01-30T09:28:41;25.48;;;14.43;;
36653;SDS011;22650;49.350;20.898;2024-01-30T09:31:14;26.73;;;14.63;;
36653;SDS011;22650;49.350;20.898;2024-01-30T09:33:52;24.50;;;14.70;;
36653;SDS011;22650;49.350;20.898;2024-01-30T09:36:26;27.30;;;14.95;;
36653;SDS011;22650;49.350;20.898;2024-01-30T09:39:00;25.98;;;14.80;;
36653;SDS011;22650;49.350;20.898;2024-01-30T09:41:36;24.35;;;15.50;;
36653;SDS011;22650;49.350;20.898;2024-01-30T09:44:15;24.73;;;15.38;;
36653;SDS011;22650;49.350;20.898;2024-01-30T09:46:49;24.45;;;14.52;;
36653;SDS011;22650;49.350;20.898;2024-01-30T09:49:25;21.55;;;13.32;;
36653;SDS011;22650;49.350;20.898;2024-01-30T09:51:59;24.98;;;14.07;;
36653;SDS011;22650;49.350;20.898;2024-01-30T09:54:33;23.13;;;13.60;;
36653;SDS011;22650;49.350;20.898;2024-01-30T09:57:08;25.42;;;14.38;;
36653;SDS011;22650;49.350;20.898;2024-01-30T09:59:42;21.10;;;12.63;;
36653;SDS011;22650;49.350;20.898;2024-01-30T10:02:16;18.13;;;12.35;;
36653;SDS011;22650;49.350;20.898;2024-01-30T10:04:52;22.80;;;12.43;;
36653;SDS011;22650;49.350;20.898;2024-01-30T10:10:00;18.80;;;11.07;;
36653;SDS011;22650;49.350;20.898;2024-01-30T10:12:34;18.80;;;11.45;;
36653;SDS011;22650;49.350;20.898;2024-01-30T10:15:07;18.38;;;11.10;;
36653;SDS011;22650;49.350;20.898;2024-01-30T10:17:42;19.05;;;10.70;;
36653;SDS011;22650;49.350;20.898;2024-01-30T10:20:18;18.85;;;10.95;;
36653;SDS011;22650;49.350;20.898;2024-01-30T10:22:54;20.10;;;12.43;;
36653;SDS011;22650;49.350;20.898;2024-01-30T10:25:29;23.45;;;12.15;;
36653;SDS011;22650;49.350;20.898;2024-01-30T10:28:04;21.27;;;12.10;;
36653;SDS011;22650;49.350;20.898;2024-01-30T10:30:39;22.70;;;12.27;;
36653;SDS011;22650;49.350;20.898;2024-01-30T10:33:13;20.60;;;12.23;;
36653;SDS011;22650;49.350;20.898;2024-01-30T10:35:48;20.25;;;11.25;;
36653;SDS011;22650;49.350;20.898;2024-01-30T10:38:23;18.77;;;10.25;;
36653;SDS011;22650;49.350;20.898;2024-01-30T10:41:00;17.88;;;9.75;;
36653;SDS011;22650;49.350;20.898;2024-01-30T10:43:35;17.40;;;9.93;;
36653;SDS011;22650;49.350;20.898;2024-01-30T10:46:16;15.75;;;10.07;;
36653;SDS011;22650;49.350;20.898;2024-01-30T10:48:56;20.20;;;10.98;;
36653;SDS011;22650;49.350;20.898;2024-01-30T10:51:32;18.65;;;10.65;;
36653;SDS011;22650;49.350;20.898;2024-01-30T10:54:07;16.50;;;10.18;;
36653;SDS011;22650;49.350;20.898;2024-01-30T10:59:15;15.65;;;9.38;;
36653;SDS011;22650;49.350;20.898;2024-01-30T11:01:50;16.48;;;9.35;;
36653;SDS011;22650;49.350;20.898;2024-01-30T11:04:24;15.73;;;9.15;;
36653;SDS011;22650;49.350;20.898;2024-01-30T11:06:59;16.55;;;9.00;;
36653;SDS011;22650;49.350;20.898;2024-01-30T11:09:36;14.23;;;7.95;;
36653;SDS011;22650;49.350;20.898;2024-01-30T11:12:12;15.13;;;9.43;;
36653;SDS011;22650;49.350;20.898;2024-01-30T11:14:45;16.50;;;9.32;;
36653;SDS011;22650;49.350;20.898;2024-01-30T11:17:19;13.88;;;8.80;;
36653;SDS011;22650;49.350;20.898;2024-01-30T11:19:53;12.88;;;8.68;;
36653;SDS011;22650;49.350;20.898;2024-01-30T11:22:28;16.73;;;9.70;;
36653;SDS011;22650;49.350;20.898;2024-01-30T11:25:04;13.40;;;8.95;;
36653;SDS011;22650;49.350;20.898;2024-01-30T11:27:39;12.75;;;8.57;;
36653;SDS011;22650;49.350;20.898;2024-01-30T11:30:21;13.13;;;7.95;;
36653;SDS011;22650;49.350;20.898;2024-01-30T11:32:59;12.68;;;7.32;;
36653;SDS011;22650;49.350;20.898;2024-01-30T11:35:38;11.68;;;7.88;;
36653;SDS011;22650;49.350;20.898;2024-01-30T11:38:14;12.48;;;7.65;;
36653;SDS011;22650;49.350;20.898;2024-01-30T11:40:48;10.48;;;6.97;;
36653;SDS011;22650;49.350;20.898;2024-01-30T11:43:24;12.30;;;7.32;;
36653;SDS011;22650;49.350;20.898;2024-01-30T11:45:58;9.77;;;6.30;;
36653;SDS011;22650;49.350;20.898;2024-01-30T11:48:31;11.43;;;6.75;;
36653;SDS011;22650;49.350;20.898;2024-01-30T11:51:05;10.00;;;6.18;;
36653;SDS011;22650;49.350;20.898;2024-01-30T11:53:40;13.15;;;7.38;;
36653;SDS011;22650;49.350;20.898;2024-01-30T11:56:14;10.68;;;7.00;;
36653;SDS011;22650;49.350;20.898;2024-01-30T11:58:48;10.32;;;6.78;;
36653;SDS011;22650;49.350;20.898;2024-01-30T12:01:23;11.45;;;7.10;;
36653;SDS011;22650;49.350;20.898;2024-01-30T12:04:01;9.27;;;6.47;;
36653;SDS011;22650;49.350;20.898;2024-01-30T12:06:40;13.57;;;7.50;;
36653;SDS011;22650;49.350;20.898;2024-01-30T12:09:15;10.02;;;5.88;;
36653;SDS011;22650;49.350;20.898;2024-01-30T12:11:49;10.18;;;6.03;;
36653;SDS011;22650;49.350;20.898;2024-01-30T12:14:22;10.35;;;6.43;;
36653;SDS011;22650;49.350;20.898;2024-01-30T12:16:56;9.52;;;5.10;;
36653;SDS011;22650;49.350;20.898;2024-01-30T12:19:30;12.07;;;6.53;;
36653;SDS011;22650;49.350;20.898;2024-01-30T12:22:04;8.93;;;6.30;;
36653;SDS011;22650;49.350;20.898;2024-01-30T12:27:14;9.68;;;5.85;;
36653;SDS011;22650;49.350;20.898;2024-01-30T12:29:48;7.90;;;5.53;;
36653;SDS011;22650;49.350;20.898;2024-01-30T12:32:28;7.97;;;5.32;;
36653;SDS011;22650;49.350;20.898;2024-01-30T12:35:03;10.15;;;5.95;;
36653;SDS011;22650;49.350;20.898;2024-01-30T12:37:39;9.88;;;6.13;;
36653;SDS011;22650;49.350;20.898;2024-01-30T12:40:15;11.43;;;6.53;;
36653;SDS011;22650;49.350;20.898;2024-01-30T12:42:50;10.23;;;6.68;;
36653;SDS011;22650;49.350;20.898;2024-01-30T12:45:25;9.80;;;6.22;;
36653;SDS011;22650;49.350;20.898;2024-01-30T12:47:59;8.85;;;5.63;;
36653;SDS011;22650;49.350;20.898;2024-01-30T12:50:33;9.82;;;6.25;;
36653;SDS011;22650;49.350;20.898;2024-01-30T12:53:06;8.25;;;5.72;;
36653;SDS011;22650;49.350;20.898;2024-01-30T12:55:42;10.15;;;6.60;;
36653;SDS011;22650;49.350;20.898;2024-01-30T12:58:16;9.70;;;6.35;;
36653;SDS011;22650;49.350;20.898;2024-01-30T13:00:50;10.88;;;6.32;;
36653;SDS011;22650;49.350;20.898;2024-01-30T13:03:24;10.30;;;6.88;;
36653;SDS011;22650;49.350;20.898;2024-01-30T13:05:57;10.73;;;6.78;;
36653;SDS011;22650;49.350;20.898;2024-01-30T13:08:31;9.65;;;6.32;;
36653;SDS011;22650;49.350;20.898;2024-01-30T13:11:06;8.00;;;5.50;;
36653;SDS011;22650;49.350;20.898;2024-01-30T13:13:51;10.30;;;6.53;;
36653;SDS011;22650;49.350;20.898;2024-01-30T13:16:24;10.95;;;6.95;;
36653;SDS011;22650;49.350;20.898;2024-01-30T13:18:58;10.60;;;7.03;;
36653;SDS011;22650;49.350;20.898;2024-01-30T13:21:33;8.30;;;6.22;;
36653;SDS011;22650;49.350;20.898;2024-01-30T13:24:07;11.00;;;7.20;;
36653;SDS011;22650;49.350;20.898;2024-01-30T13:26:43;11.52;;;6.85;;
36653;SDS011;22650;49.350;20.898;2024-01-30T13:29:18;10.98;;;7.15;;
36653;SDS011;22650;49.350;20.898;2024-01-30T13:31:51;11.00;;;7.30;;
36653;SDS011;22650;49.350;20.898;2024-01-30T13:34:25;11.98;;;7.43;;
36653;SDS011;22650;49.350;20.898;2024-01-30T13:36:59;10.85;;;7.88;;
36653;SDS011;22650;49.350;20.898;2024-01-30T13:39:33;11.65;;;7.47;;
36653;SDS011;22650;49.350;20.898;2024-01-30T13:42:12;11.00;;;7.93;;
36653;SDS011;22650;49.350;20.898;2024-01-30T13:44:45;14.55;;;9.68;;
36653;SDS011;22650;49.350;20.898;2024-01-30T13:47:19;10.32;;;6.95;;
36653;SDS011;22650;49.350;20.898;2024-01-30T13:49:53;10.13;;;6.50;;
36653;SDS011;22650;49.350;20.898;2024-01-30T13:52:27;11.50;;;7.00;;
36653;SDS011;22650;49.350;20.898;2024-01-30T13:55:09;10.88;;;6.65;;
36653;SDS011;22650;49.350;20.898;2024-01-30T13:57:45;11.57;;;7.47;;
36653;SDS011;22650;49.350;20.898;2024-01-30T14:00:22;12.32;;;7.45;;
36653;SDS011;22650;49.350;20.898;2024-01-30T14:05:31;12.65;;;7.20;;
36653;SDS011;22650;49.350;20.898;2024-01-30T14:08:05;12.07;;;7.68;;
36653;SDS011;22650;49.350;20.898;2024-01-30T14:10:39;14.15;;;8.00;;
36653;SDS011;22650;49.350;20.898;2024-01-30T14:13:14;12.52;;;8.15;;
36653;SDS011;22650;49.350;20.898;2024-01-30T14:15:48;14.18;;;7.90;;
36653;SDS011;22650;49.350;20.898;2024-01-30T14:18:22;13.30;;;8.70;;
36653;SDS011;22650;49.350;20.898;2024-01-30T14:20:57;14.00;;;8.75;;
36653;SDS011;22650;49.350;20.898;2024-01-30T14:23:31;10.85;;;7.18;;
36653;SDS011;22650;49.350;20.898;2024-01-30T14:26:07;10.32;;;6.93;;
36653;SDS011;22650;49.350;20.898;2024-01-30T14:28:46;12.45;;;8.07;;
36653;SDS011;22650;49.350;20.898;2024-01-30T14:31:19;14.25;;;8.40;;
36653;SDS011;22650;49.350;20.898;2024-01-30T14:33:54;11.88;;;7.75;;
36653;SDS011;22650;49.350;20.898;2024-01-30T14:36:28;14.07;;;8.20;;
36653;SDS011;22650;49.350;20.898;2024-01-30T14:39:02;14.38;;;8.27;;
36653;SDS011;22650;49.350;20.898;2024-01-30T14:41:35;15.50;;;8.05;;
36653;SDS011;22650;49.350;20.898;2024-01-30T14:44:10;11.15;;;6.93;;
36653;SDS011;22650;49.350;20.898;2024-01-30T14:46:45;12.60;;;7.85;;
36653;SDS011;22650;49.350;20.898;2024-01-30T14:49:19;11.00;;;7.85;;
36653;SDS011;22650;49.350;20.898;2024-01-30T14:51:53;13.30;;;8.52;;
36653;SDS011;22650;49.350;20.898;2024-01-30T14:54:26;15.65;;;9.50;;
36653;SDS011;22650;49.350;20.898;2024-01-30T14:57:00;14.77;;;9.18;;
36653;SDS011;22650;49.350;20.898;2024-01-30T14:59:35;15.50;;;8.77;;
36653;SDS011;22650;49.350;20.898;2024-01-30T15:04:43;14.15;;;8.38;;
36653;SDS011;22650;49.350;20.898;2024-01-30T15:07:17;26.23;;;13.43;;
36653;SDS011;22650;49.350;20.898;2024-01-30T15:10:04;22.15;;;12.35;;
36653;SDS011;22650;49.350;20.898;2024-01-30T15:12:38;25.38;;;14.50;;
36653;SDS011;22650;49.350;20.898;2024-01-30T15:15:13;28.85;;;14.75;;